マカオ の空港の天気 - METARとTAF

マカオ国際空港 ( VMMC / MFM ) - マカオ タイパ島
飛行場実況気象(Metar)
観測時間01/20 09:30 CST (01/20 01:30 UTC)
風向・風速北 10m/s
視程10km以上
天気現象
少しの雲 雲底高度 550m
全天の4割程度の雲 雲底高度 910m
気温16℃
湿度72%
気圧1024hPa
METARVMMC 200130Z 35019KT 9999 FEW018 SCT030 16/11 Q1024 NOSIG
過去の天気等 Google飛行場航空写真 Wunderground天気予報

過去48時間のMETAR

飛行場予報(TAF)
発表時間: 1/20 07:02 CST (1/19 23:02 UTC)
予報対象時間: 20日8時 CST ~ 21日14時 CST
風向・風速北 8m/s
視程10km以上
少しの雲 雲底高度 610m
全天の4割程度の雲 雲底高度 1,070m
20日8時 CST ~ 20日12時 CST に一時的に
風向・風速北北西 9m/s 瞬間風速 14m/s
TAF VMMC 192302Z 2000/2106 36015KT 9999 FEW020 SCT035
TEMPO 2000/2004 34018G28KT